createdAt,value
2022-08-17T00:00:49.312Z,1006.75
2022-08-17T00:01:52.632Z,1006.70
2022-08-17T00:02:36.875Z,1006.77
2022-08-17T00:03:34.559Z,1006.70
2022-08-17T00:04:34.565Z,1006.75
2022-08-17T00:05:34.567Z,1006.71
2022-08-17T00:06:34.568Z,1006.77
2022-08-17T00:07:34.573Z,1006.77
2022-08-17T00:08:34.570Z,1006.75
2022-08-17T00:09:34.570Z,1006.78
2022-08-17T00:10:34.576Z,1006.74
2022-08-17T00:11:34.584Z,1006.75
2022-08-17T00:12:41.694Z,1006.70
2022-08-17T00:13:34.585Z,1006.70
2022-08-17T00:14:34.588Z,1006.70
2022-08-17T00:15:34.582Z,1006.70
2022-08-17T00:16:55.360Z,1006.72
2022-08-17T00:17:34.593Z,1006.70
2022-08-17T00:19:01.685Z,1006.70
2022-08-17T00:19:34.600Z,1006.72
2022-08-17T00:20:35.037Z,1006.70
2022-08-17T00:21:56.061Z,1006.69
2022-08-17T00:22:36.741Z,1006.70
2022-08-17T00:23:34.607Z,1006.69
2022-08-17T00:24:34.614Z,1006.72
2022-08-17T00:25:34.609Z,1006.72
2022-08-17T00:26:44.700Z,1006.67
2022-08-17T00:27:34.618Z,1006.70
2022-08-17T00:28:34.619Z,1006.71
2022-08-17T00:29:34.621Z,1006.70
2022-08-17T00:30:51.468Z,1006.70
2022-08-17T00:31:34.624Z,1006.68
2022-08-17T00:33:14.246Z,1006.72
2022-08-17T00:33:34.629Z,1006.72
2022-08-17T00:34:34.630Z,1006.74
2022-08-17T00:35:34.635Z,1006.77
2022-08-17T00:36:34.635Z,1006.78
2022-08-17T00:37:34.639Z,1006.78
2022-08-17T00:38:34.640Z,1006.80
2022-08-17T00:39:34.700Z,1006.80
2022-08-17T00:40:39.872Z,1006.79
2022-08-17T00:41:34.647Z,1006.80
2022-08-17T00:42:34.649Z,1006.77
2022-08-17T00:43:34.651Z,1006.81
2022-08-17T00:44:34.652Z,1006.81
2022-08-17T00:45:34.656Z,1006.85
2022-08-17T00:46:34.659Z,1006.83
2022-08-17T00:47:34.668Z,1006.78
2022-08-17T00:48:34.661Z,1006.75
2022-08-17T00:49:34.661Z,1006.78
2022-08-17T00:50:34.664Z,1006.72
2022-08-17T00:51:34.666Z,1006.70
2022-08-17T00:52:34.673Z,1006.71
2022-08-17T00:53:34.669Z,1006.74
2022-08-17T00:54:41.661Z,1006.75
2022-08-17T00:55:34.676Z,1006.75
2022-08-17T00:56:34.679Z,1006.74
2022-08-17T00:57:34.684Z,1006.76
2022-08-17T00:58:36.529Z,1006.71
2022-08-17T00:59:34.683Z,1006.78
2022-08-17T01:00:34.694Z,1006.77
2022-08-17T01:01:34.710Z,1006.75
2022-08-17T01:02:41.465Z,1006.78
2022-08-17T01:03:34.693Z,1006.78
2022-08-17T01:04:34.698Z,1006.77
2022-08-17T01:05:34.692Z,1006.80
2022-08-17T01:06:34.703Z,1006.78
2022-08-17T01:07:34.697Z,1006.77
2022-08-17T01:08:34.704Z,1006.77
2022-08-17T01:09:34.711Z,1006.77
2022-08-17T01:10:57.358Z,1006.78
2022-08-17T01:11:34.706Z,1006.78
2022-08-17T01:12:34.711Z,1006.84
2022-08-17T01:13:40.401Z,1006.86
2022-08-17T01:14:34.721Z,1006.86
2022-08-17T01:15:34.716Z,1006.91
2022-08-17T01:16:34.720Z,1006.89
2022-08-17T01:17:34.729Z,1006.92
2022-08-17T01:18:34.725Z,1006.93
2022-08-17T01:19:34.728Z,1006.96
2022-08-17T01:20:47.926Z,1007.00
2022-08-17T01:21:34.730Z,1007.01
2022-08-17T01:22:34.731Z,1007.01
2022-08-17T01:23:34.736Z,1007.00
2022-08-17T01:24:34.736Z,1006.96
2022-08-17T01:25:34.737Z,1007.01
2022-08-17T01:26:34.745Z,1007.02
2022-08-17T01:27:34.741Z,1007.02
2022-08-17T01:28:54.066Z,1007.01
2022-08-17T01:29:34.749Z,1007.05
2022-08-17T01:30:56.979Z,1007.08
2022-08-17T01:31:34.747Z,1007.06
2022-08-17T01:32:34.752Z,1007.04
2022-08-17T01:33:34.748Z,1007.00
2022-08-17T01:34:42.408Z,1007.04
2022-08-17T01:35:34.755Z,1007.03
2022-08-17T01:36:34.757Z,1007.03
2022-08-17T01:37:34.758Z,1007.04
2022-08-17T01:38:34.768Z,1006.98
2022-08-17T01:39:34.830Z,1007.03
2022-08-17T01:40:34.770Z,1006.99
2022-08-17T01:41:34.774Z,1006.98
2022-08-17T01:42:34.772Z,1007.00
2022-08-17T01:43:34.769Z,1007.01
2022-08-17T01:44:34.777Z,1007.03
2022-08-17T01:45:34.778Z,1007.05
2022-08-17T01:46:34.789Z,1007.01
2022-08-17T01:47:36.098Z,1007.04
2022-08-17T01:48:34.783Z,1007.06
2022-08-17T01:49:34.787Z,1007.08
2022-08-17T01:50:34.792Z,1007.11
2022-08-17T01:51:34.798Z,1007.06
2022-08-17T01:52:34.794Z,1007.15
2022-08-17T01:53:34.789Z,1007.11
2022-08-17T01:54:34.795Z,1007.15
2022-08-17T01:55:34.796Z,1007.16
2022-08-17T01:56:34.797Z,1007.17
2022-08-17T01:57:34.799Z,1007.16
2022-08-17T01:58:34.806Z,1007.15
2022-08-17T01:59:34.804Z,1007.16
2022-08-17T02:00:59.598Z,1007.18
2022-08-17T02:01:34.943Z,1007.20
2022-08-17T02:02:34.810Z,1007.15
2022-08-17T02:03:34.811Z,1007.13
2022-08-17T02:04:34.816Z,1007.12
2022-08-17T02:05:34.818Z,1007.10
2022-08-17T02:06:52.735Z,1007.10
2022-08-17T02:07:59.999Z,1007.15
2022-08-17T02:08:37.036Z,1007.07
2022-08-17T02:09:34.819Z,1007.05
2022-08-17T02:10:34.825Z,1007.07
2022-08-17T02:11:34.823Z,1007.09
2022-08-17T02:12:37.625Z,1007.09
2022-08-17T02:13:34.829Z,1007.03
2022-08-17T02:14:34.836Z,1007.04
2022-08-17T02:15:34.835Z,1007.03
2022-08-17T02:16:36.947Z,1007.02
2022-08-17T02:17:34.837Z,1007.04
2022-08-17T02:18:34.841Z,1007.01
2022-08-17T02:19:34.841Z,1007.00
2022-08-17T02:20:41.985Z,1007.00
2022-08-17T02:21:34.840Z,1007.03
2022-08-17T02:22:34.851Z,1007.00
2022-08-17T02:23:34.849Z,1006.99
2022-08-17T02:24:59.535Z,1006.98
2022-08-17T02:25:34.849Z,1006.99
2022-08-17T02:26:34.852Z,1007.01
2022-08-17T02:27:34.853Z,1006.98
2022-08-17T02:28:34.858Z,1007.00
2022-08-17T02:29:34.862Z,1007.06
2022-08-17T02:30:59.829Z,1007.01
2022-08-17T02:31:34.859Z,1007.04
2022-08-17T02:32:34.864Z,1007.05
2022-08-17T02:33:42.450Z,1007.02
2022-08-17T02:34:34.869Z,1007.03
2022-08-17T02:35:34.871Z,1007.00
2022-08-17T02:36:34.870Z,1006.97
2022-08-17T02:37:34.870Z,1006.96
2022-08-17T02:38:34.876Z,1006.97
2022-08-17T02:39:34.927Z,1006.93
2022-08-17T02:40:36.381Z,1006.91
2022-08-17T02:41:34.879Z,1006.91
2022-08-17T02:42:34.879Z,1006.90
2022-08-17T02:43:34.892Z,1006.88
2022-08-17T02:44:39.268Z,1006.89
2022-08-17T02:45:34.885Z,1006.91
2022-08-17T02:46:34.885Z,1006.86
2022-08-17T02:47:34.890Z,1006.88
2022-08-17T02:48:34.892Z,1006.89
2022-08-17T02:49:34.894Z,1006.90
2022-08-17T02:50:34.900Z,1006.93
2022-08-17T02:51:34.896Z,1006.90
2022-08-17T02:52:42.926Z,1006.91
2022-08-17T02:53:35.810Z,1006.95
2022-08-17T02:54:41.067Z,1006.96
2022-08-17T02:55:34.900Z,1006.95
2022-08-17T02:56:34.908Z,1006.98
2022-08-17T02:57:34.906Z,1006.98
2022-08-17T02:58:36.092Z,1006.99
2022-08-17T02:59:34.913Z,1006.97
2022-08-17T03:00:34.910Z,1006.99
2022-08-17T03:01:34.989Z,1007.01
2022-08-17T03:02:34.913Z,1007.04
2022-08-17T03:03:34.919Z,1007.02
2022-08-17T03:04:35.385Z,1007.02
2022-08-17T03:05:34.922Z,1007.02
2022-08-17T03:06:34.920Z,1007.03
2022-08-17T03:07:34.920Z,1007.00
2022-08-17T03:08:34.928Z,1006.98
2022-08-17T03:09:34.930Z,1006.98
2022-08-17T03:10:34.926Z,1006.96
2022-08-17T03:11:34.933Z,1006.96
2022-08-17T03:12:34.969Z,1006.94
2022-08-17T03:13:34.931Z,1006.95
2022-08-17T03:14:38.167Z,1006.94
2022-08-17T03:15:34.937Z,1006.96
2022-08-17T03:16:34.937Z,1006.98
2022-08-17T03:17:34.942Z,1007.01
2022-08-17T03:18:34.939Z,1007.02
2022-08-17T03:19:34.943Z,1006.98
2022-08-17T03:20:34.949Z,1007.00
2022-08-17T03:21:34.947Z,1006.99
2022-08-17T03:22:36.771Z,1006.95
2022-08-17T03:23:34.961Z,1006.95
2022-08-17T03:24:34.954Z,1006.92
2022-08-17T03:25:34.953Z,1006.96
2022-08-17T03:26:34.957Z,1006.94
2022-08-17T03:27:34.951Z,1006.91
2022-08-17T03:28:34.956Z,1006.90
2022-08-17T03:29:34.963Z,1006.92
2022-08-17T03:30:34.959Z,1006.93
2022-08-17T03:31:36.886Z,1006.92
2022-08-17T03:32:34.962Z,1006.93
2022-08-17T03:33:34.980Z,1006.92
2022-08-17T03:34:34.966Z,1006.91
2022-08-17T03:35:34.975Z,1006.90
2022-08-17T03:36:35.886Z,1006.91
2022-08-17T03:37:35.076Z,1006.92
2022-08-17T03:38:38.892Z,1006.93
2022-08-17T03:39:35.009Z,1006.88
2022-08-17T03:40:58.108Z,1006.94
2022-08-17T03:41:34.981Z,1006.90
2022-08-17T03:42:34.979Z,1006.92
2022-08-17T03:43:34.984Z,1006.91
2022-08-17T03:44:34.981Z,1006.90
2022-08-17T03:45:34.987Z,1006.92
2022-08-17T03:46:35.678Z,1006.91
2022-08-17T03:47:34.990Z,1006.89
2022-08-17T03:48:34.992Z,1006.89
2022-08-17T03:49:34.995Z,1006.90
2022-08-17T03:50:34.995Z,1006.91
2022-08-17T03:51:34.992Z,1006.89
2022-08-17T03:52:34.993Z,1006.93
2022-08-17T03:53:34.995Z,1006.93
2022-08-17T03:54:35.004Z,1006.94
2022-08-17T03:55:36.240Z,1006.91
2022-08-17T03:56:35.008Z,1006.90
2022-08-17T03:57:35.001Z,1006.93
2022-08-17T03:58:35.006Z,1006.93
2022-08-17T03:59:35.002Z,1006.97
2022-08-17T04:00:35.028Z,1006.97
2022-08-17T04:01:35.217Z,1006.97
2022-08-17T04:02:35.010Z,1006.98
2022-08-17T04:03:35.014Z,1006.98
2022-08-17T04:04:35.013Z,1007.00
2022-08-17T04:05:35.015Z,1007.01
2022-08-17T04:06:35.015Z,1007.00
2022-08-17T04:07:35.021Z,1007.01
2022-08-17T04:08:35.020Z,1006.96
2022-08-17T04:09:35.029Z,1006.99
2022-08-17T04:10:38.369Z,1006.98
2022-08-17T04:11:35.027Z,1006.96
2022-08-17T04:12:35.024Z,1006.98
2022-08-17T04:13:35.027Z,1006.98
2022-08-17T04:14:35.031Z,1006.96
2022-08-17T04:15:35.037Z,1006.99
2022-08-17T04:16:35.035Z,1006.98
2022-08-17T04:17:35.036Z,1007.01
2022-08-17T04:18:35.032Z,1006.99
2022-08-17T04:19:35.036Z,1006.98
2022-08-17T04:20:35.043Z,1007.01
2022-08-17T04:21:35.039Z,1007.01
2022-08-17T04:22:35.040Z,1007.04
2022-08-17T04:23:35.042Z,1007.03
2022-08-17T04:24:35.045Z,1006.99
2022-08-17T04:25:35.050Z,1007.02
2022-08-17T04:26:54.250Z,1007.05
2022-08-17T04:27:35.137Z,1007.02
2022-08-17T04:28:35.047Z,1007.04
2022-08-17T04:29:54.851Z,1007.04
2022-08-17T04:30:35.053Z,1007.01
2022-08-17T04:31:35.057Z,1007.05
2022-08-17T04:33:04.769Z,1007.04
2022-08-17T04:33:35.059Z,1007.04
2022-08-17T04:34:35.061Z,1007.05
2022-08-17T04:35:35.060Z,1007.03
2022-08-17T04:36:35.058Z,1007.07
2022-08-17T04:37:35.069Z,1007.08
2022-08-17T04:38:35.063Z,1007.07
2022-08-17T04:39:35.152Z,1007.08
2022-08-17T04:40:35.073Z,1007.09
2022-08-17T04:41:35.069Z,1007.06
2022-08-17T04:42:35.073Z,1007.10
2022-08-17T04:43:35.070Z,1007.10
2022-08-17T04:44:37.375Z,1007.11
2022-08-17T04:45:35.078Z,1007.10
2022-08-17T04:46:35.078Z,1007.16
2022-08-17T04:47:35.082Z,1007.17
2022-08-17T04:48:37.073Z,1007.18
2022-08-17T04:49:35.083Z,1007.18
2022-08-17T04:50:35.082Z,1007.20
2022-08-17T04:51:35.082Z,1007.16
2022-08-17T04:52:43.223Z,1007.20
2022-08-17T04:53:35.091Z,1007.21
2022-08-17T04:54:35.086Z,1007.21
2022-08-17T04:55:35.091Z,1007.21
2022-08-17T04:56:35.101Z,1007.23
2022-08-17T04:57:39.515Z,1007.24
2022-08-17T04:58:35.101Z,1007.20
2022-08-17T04:59:35.100Z,1007.21
2022-08-17T05:00:35.105Z,1007.20
2022-08-17T05:01:35.133Z,1007.20
2022-08-17T05:02:35.105Z,1007.15
2022-08-17T05:03:35.105Z,1007.20
2022-08-17T05:04:35.568Z,1007.24
2022-08-17T05:05:35.111Z,1007.23
2022-08-17T05:06:35.110Z,1007.25
2022-08-17T05:07:35.117Z,1007.24
2022-08-17T05:08:35.155Z,1007.26
2022-08-17T05:09:35.111Z,1007.26
2022-08-17T05:10:35.113Z,1007.23
2022-08-17T05:11:35.117Z,1007.29
2022-08-17T05:12:35.118Z,1007.28
2022-08-17T05:13:35.121Z,1007.27
2022-08-17T05:14:35.124Z,1007.33
2022-08-17T05:15:36.027Z,1007.37
2022-08-17T05:16:35.126Z,1007.35
2022-08-17T05:17:35.128Z,1007.40
2022-08-17T05:18:35.126Z,1007.37
2022-08-17T05:19:35.135Z,1007.41
2022-08-17T05:20:35.130Z,1007.40
2022-08-17T05:21:35.133Z,1007.46
2022-08-17T05:22:35.133Z,1007.42
2022-08-17T05:23:42.833Z,1007.49
2022-08-17T05:24:38.419Z,1007.48
2022-08-17T05:25:36.207Z,1007.50
2022-08-17T05:26:36.482Z,1007.51
2022-08-17T05:27:35.991Z,1007.54
2022-08-17T05:28:35.143Z,1007.55
2022-08-17T05:29:35.986Z,1007.59
2022-08-17T05:30:35.151Z,1007.58
2022-08-17T05:31:35.152Z,1007.58
2022-08-17T05:32:37.975Z,1007.59
2022-08-17T05:33:35.157Z,1007.63
2022-08-17T05:34:35.152Z,1007.63
2022-08-17T05:35:35.160Z,1007.66
2022-08-17T05:36:42.199Z,1007.68
2022-08-17T05:37:35.161Z,1007.67
2022-08-17T05:38:35.162Z,1007.66
2022-08-17T05:39:35.194Z,1007.64
2022-08-17T05:40:35.163Z,1007.65
2022-08-17T05:41:35.165Z,1007.65
2022-08-17T05:42:35.169Z,1007.64
2022-08-17T05:43:35.171Z,1007.65
2022-08-17T05:44:35.176Z,1007.66
2022-08-17T05:45:54.344Z,1007.63
2022-08-17T05:46:35.176Z,1007.64
2022-08-17T05:47:35.180Z,1007.65
2022-08-17T05:48:35.458Z,1007.60
2022-08-17T05:49:35.181Z,1007.60
2022-08-17T05:50:35.184Z,1007.56
2022-08-17T05:51:35.188Z,1007.60
2022-08-17T05:52:35.195Z,1007.59
2022-08-17T05:53:35.259Z,1007.63
2022-08-17T05:54:35.195Z,1007.65
2022-08-17T05:55:35.195Z,1007.68
2022-08-17T05:56:35.195Z,1007.72
2022-08-17T05:57:35.198Z,1007.73
2022-08-17T05:58:35.200Z,1007.74
2022-08-17T05:59:35.198Z,1007.74
2022-08-17T06:00:35.204Z,1007.72
2022-08-17T06:01:35.285Z,1007.72
2022-08-17T06:02:35.209Z,1007.72
2022-08-17T06:03:35.206Z,1007.72
2022-08-17T06:04:35.213Z,1007.70
2022-08-17T06:05:35.213Z,1007.71
2022-08-17T06:06:35.212Z,1007.69
2022-08-17T06:07:35.217Z,1007.70
2022-08-17T06:08:35.219Z,1007.70
2022-08-17T06:09:35.219Z,1007.73
2022-08-17T06:10:35.229Z,1007.73
2022-08-17T06:11:35.261Z,1007.71
2022-08-17T06:12:35.225Z,1007.71
2022-08-17T06:13:35.230Z,1007.72
2022-08-17T06:14:35.233Z,1007.72
2022-08-17T06:15:35.234Z,1007.76
2022-08-17T06:16:35.234Z,1007.79
2022-08-17T06:17:35.243Z,1007.79
2022-08-17T06:18:35.238Z,1007.80
2022-08-17T06:19:35.245Z,1007.84
2022-08-17T06:20:35.245Z,1007.85
2022-08-17T06:21:35.245Z,1007.87
2022-08-17T06:22:35.250Z,1007.87
2022-08-17T06:23:35.255Z,1007.84
2022-08-17T06:24:35.260Z,1007.85
2022-08-17T06:25:35.258Z,1007.84
2022-08-17T06:26:39.717Z,1007.82
2022-08-17T06:27:35.262Z,1007.87
2022-08-17T06:28:35.266Z,1007.84
2022-08-17T06:29:35.268Z,1007.87
2022-08-17T06:30:59.958Z,1007.85
2022-08-17T06:31:35.270Z,1007.83
2022-08-17T06:32:35.273Z,1007.84
2022-08-17T06:33:35.284Z,1007.80
2022-08-17T06:34:35.283Z,1007.81
2022-08-17T06:35:35.279Z,1007.86
2022-08-17T06:36:35.282Z,1007.87
2022-08-17T06:37:35.290Z,1007.84
2022-08-17T06:38:38.374Z,1007.86
2022-08-17T06:39:35.304Z,1007.88
2022-08-17T06:40:35.292Z,1007.86
2022-08-17T06:41:37.912Z,1007.88
2022-08-17T06:43:02.776Z,1007.85
2022-08-17T06:43:35.303Z,1007.83
2022-08-17T06:44:44.780Z,1007.86
2022-08-17T06:45:35.305Z,1007.81
2022-08-17T06:46:35.312Z,1007.84
2022-08-17T06:47:35.311Z,1007.87
2022-08-17T06:48:35.311Z,1007.87
2022-08-17T06:49:35.322Z,1007.93
2022-08-17T06:50:35.321Z,1007.96
2022-08-17T06:51:35.324Z,1007.98
2022-08-17T06:52:47.216Z,1007.99
2022-08-17T06:53:35.335Z,1008.02
2022-08-17T06:54:35.331Z,1008.01
2022-08-17T06:55:38.070Z,1008.01
2022-08-17T06:56:54.596Z,1007.95
2022-08-17T06:57:35.338Z,1008.00
2022-08-17T06:58:35.344Z,1008.00
2022-08-17T06:59:54.676Z,1007.99
2022-08-17T07:00:35.434Z,1007.99
2022-08-17T07:01:35.422Z,1007.96
2022-08-17T07:02:52.110Z,1007.96
2022-08-17T07:03:35.362Z,1007.95
2022-08-17T07:04:35.365Z,1007.95
2022-08-17T07:05:35.384Z,1007.93
2022-08-17T07:06:38.184Z,1007.93
2022-08-17T07:07:35.377Z,1007.93
2022-08-17T07:08:35.603Z,1007.93
2022-08-17T07:09:35.390Z,1007.96
2022-08-17T07:10:35.395Z,1007.99
2022-08-17T07:11:35.389Z,1007.99
2022-08-17T07:12:35.393Z,1008.01
2022-08-17T07:13:35.394Z,1008.02
2022-08-17T07:14:35.401Z,1008.04
2022-08-17T07:15:35.405Z,1008.03
2022-08-17T07:16:35.409Z,1008.02
2022-08-17T07:17:47.015Z,1008.05
2022-08-17T07:18:35.412Z,1008.06
2022-08-17T07:19:35.418Z,1008.08
2022-08-17T07:20:35.422Z,1008.04
2022-08-17T07:21:35.430Z,1008.03
2022-08-17T07:22:57.841Z,1008.08
2022-08-17T07:23:35.437Z,1008.10
2022-08-17T07:24:35.442Z,1008.16
2022-08-17T07:25:35.443Z,1008.16
2022-08-17T07:26:35.457Z,1008.17
2022-08-17T07:27:35.458Z,1008.20
2022-08-17T07:28:35.459Z,1008.21
2022-08-17T07:29:35.460Z,1008.23
2022-08-17T07:30:37.165Z,1008.26
2022-08-17T07:31:35.474Z,1008.28
2022-08-17T07:32:35.485Z,1008.29
2022-08-17T07:33:35.482Z,1008.33
2022-08-17T07:34:35.492Z,1008.33
2022-08-17T07:35:40.653Z,1008.27
2022-08-17T07:36:35.504Z,1008.30
2022-08-17T07:37:35.510Z,1008.35
2022-08-17T07:38:35.555Z,1008.36
2022-08-17T07:39:35.547Z,1008.41
2022-08-17T07:40:35.553Z,1008.44
2022-08-17T07:41:57.430Z,1008.48
2022-08-17T07:42:35.543Z,1008.52
2022-08-17T07:43:35.550Z,1008.65
2022-08-17T07:44:35.555Z,1008.92
2022-08-17T07:45:35.567Z,1011.02
2022-08-17T07:46:35.574Z,1017.03
2022-08-17T07:47:35.580Z,1019.49
2022-08-17T07:48:35.585Z,1019.94
2022-08-17T07:49:35.603Z,1020.79
2022-08-17T07:50:35.603Z,1021.56
2022-08-17T07:51:35.612Z,1021.60
2022-08-17T07:52:50.752Z,1021.68
2022-08-17T07:53:35.628Z,1021.90
2022-08-17T07:54:35.639Z,1022.74
2022-08-17T07:55:35.644Z,1022.04
2022-08-17T07:56:35.652Z,1022.53
2022-08-17T07:57:35.677Z,1023.44
2022-08-17T07:58:35.673Z,1022.79
2022-08-17T07:59:35.680Z,1023.15
2022-08-17T08:00:35.699Z,1024.40
2022-08-17T08:01:39.625Z,1024.87
2022-08-17T08:02:35.713Z,1024.43
2022-08-17T08:03:35.727Z,1025.03
2022-08-17T08:05:02.788Z,1024.69
2022-08-17T08:05:49.500Z,1024.77
2022-08-17T08:06:35.759Z,1025.53
2022-08-17T08:07:35.762Z,1025.25
2022-08-17T08:08:35.776Z,1024.86
2022-08-17T08:09:35.790Z,1025.34
2022-08-17T08:10:35.805Z,1026.30
2022-08-17T08:11:35.816Z,1026.09
2022-08-17T08:12:35.828Z,1024.43
2022-08-17T08:13:35.834Z,1022.28
2022-08-17T08:14:35.847Z,1019.62
2022-08-17T08:15:35.858Z,1019.55
2022-08-17T08:16:35.869Z,1019.34
2022-08-17T08:17:35.884Z,1020.73
2022-08-17T08:18:53.754Z,1021.25
2022-08-17T08:19:35.909Z,1020.83
2022-08-17T08:20:53.158Z,1021.17
2022-08-17T08:21:35.934Z,1021.69
2022-08-17T08:22:35.945Z,1020.64
2022-08-17T08:23:35.957Z,1020.30
2022-08-17T08:24:35.975Z,1018.57
2022-08-17T08:25:35.983Z,1018.12
2022-08-17T08:26:36.004Z,1017.86
2022-08-17T08:27:36.019Z,1016.81
2022-08-17T08:28:36.027Z,1016.89
2022-08-17T08:29:36.044Z,1017.24
2022-08-17T08:30:36.050Z,1016.55
2022-08-17T08:31:41.653Z,1016.58
2022-08-17T08:32:36.079Z,1016.59
2022-08-17T08:33:36.095Z,1015.85
2022-08-17T08:34:44.654Z,1012.55
2022-08-17T08:35:36.123Z,1012.28
2022-08-17T08:37:14.453Z,1010.80
2022-08-17T08:37:42.021Z,1009.53
2022-08-17T08:38:36.168Z,1008.93
2022-08-17T08:39:36.225Z,1008.80
2022-08-17T08:40:36.316Z,1008.71
2022-08-17T08:41:36.206Z,1008.69
2022-08-17T08:42:36.231Z,1008.69
2022-08-17T08:43:36.278Z,1008.66
2022-08-17T08:45:00.503Z,1008.60
2022-08-17T08:45:36.264Z,1008.63
2022-08-17T08:46:36.302Z,1008.61
2022-08-17T08:47:36.288Z,1008.57
2022-08-17T08:48:53.955Z,1008.54
2022-08-17T08:50:02.225Z,1008.58
2022-08-17T08:50:38.486Z,1008.56
2022-08-17T08:51:36.355Z,1009.08
2022-08-17T08:52:36.365Z,1009.93
2022-08-17T08:53:36.383Z,1010.13
2022-08-17T08:54:36.395Z,1010.12
2022-08-17T08:55:36.407Z,1010.02
2022-08-17T08:56:36.430Z,1009.81
2022-08-17T08:57:36.440Z,1009.70
2022-08-17T08:58:41.367Z,1009.68
2022-08-17T08:59:36.472Z,1009.69
2022-08-17T09:00:36.509Z,1009.64
2022-08-17T09:01:36.548Z,1009.58
2022-08-17T09:02:36.519Z,1009.56
2022-08-17T09:03:51.864Z,1009.57
2022-08-17T09:05:09.952Z,1009.57
2022-08-17T09:05:36.573Z,1009.48
2022-08-17T09:06:39.261Z,1009.48
2022-08-17T09:07:36.605Z,1009.38
2022-08-17T09:08:36.625Z,1009.37
2022-08-17T09:09:36.640Z,1009.33
2022-08-17T09:10:36.660Z,1009.30
2022-08-17T09:11:36.713Z,1009.32
2022-08-17T09:12:36.689Z,1009.36
2022-08-17T09:13:36.709Z,1009.40
2022-08-17T09:14:45.000Z,1009.39
2022-08-17T09:15:36.747Z,1009.40
2022-08-17T09:16:36.772Z,1009.42
2022-08-17T09:17:36.786Z,1009.45
2022-08-17T09:19:03.411Z,1009.44
2022-08-17T09:19:36.828Z,1009.42
2022-08-17T09:20:36.845Z,1009.37
2022-08-17T09:21:36.864Z,1009.30
2022-08-17T09:22:36.889Z,1009.29
2022-08-17T09:23:36.905Z,1009.24
2022-08-17T09:24:36.928Z,1009.25
2022-08-17T09:25:36.949Z,1009.18
2022-08-17T09:26:36.971Z,1009.22
2022-08-17T09:27:36.991Z,1009.23
2022-08-17T09:28:37.018Z,1009.24
2022-08-17T09:29:37.049Z,1009.23
2022-08-17T09:30:37.058Z,1009.22
2022-08-17T09:31:48.937Z,1009.23
2022-08-17T09:32:37.104Z,1009.25
2022-08-17T09:33:37.128Z,1009.28
2022-08-17T09:34:37.154Z,1009.27
2022-08-17T09:35:37.600Z,1009.25
2022-08-17T09:36:37.196Z,1009.27
2022-08-17T09:37:37.218Z,1009.24
2022-08-17T09:38:37.243Z,1009.27
2022-08-17T09:39:37.321Z,1009.25
2022-08-17T09:40:37.289Z,1009.33
2022-08-17T09:41:37.311Z,1009.32
2022-08-17T09:42:37.333Z,1009.39
2022-08-17T09:43:37.361Z,1009.43
2022-08-17T09:44:37.382Z,1009.50
2022-08-17T09:45:37.420Z,1009.47
2022-08-17T09:46:38.801Z,1009.48
2022-08-17T09:47:37.453Z,1009.53
2022-08-17T09:48:37.476Z,1009.53
2022-08-17T09:49:37.506Z,1009.55
2022-08-17T09:51:05.378Z,1009.51
2022-08-17T09:51:37.557Z,1009.47
2022-08-17T09:52:37.579Z,1009.56
2022-08-17T09:53:37.608Z,1009.65
2022-08-17T09:54:39.719Z,1009.68
2022-08-17T09:55:37.662Z,1009.69
2022-08-17T09:56:41.045Z,1009.72
2022-08-17T09:57:37.705Z,1009.71
2022-08-17T09:58:37.733Z,1009.70
2022-08-17T09:59:38.730Z,1009.73
2022-08-17T10:00:37.785Z,1009.68
2022-08-17T10:01:37.836Z,1009.66
2022-08-17T10:02:37.838Z,1009.66
2022-08-17T10:03:37.859Z,1009.66
2022-08-17T10:04:37.888Z,1009.70
2022-08-17T10:05:37.911Z,1009.61
2022-08-17T10:06:37.938Z,1009.57
2022-08-17T10:07:37.962Z,1009.55
2022-08-17T10:08:37.995Z,1009.59
2022-08-17T10:09:38.019Z,1009.02
2022-08-17T10:10:38.045Z,1009.56
2022-08-17T10:11:38.074Z,1008.16
2022-08-17T10:12:38.222Z,1008.17
2022-08-17T10:13:38.127Z,1008.16
2022-08-17T10:14:43.652Z,1008.18
2022-08-17T10:15:38.174Z,1008.21
2022-08-17T10:16:38.206Z,1008.17
2022-08-17T10:17:38.227Z,1008.17
2022-08-17T10:18:38.258Z,1008.20
2022-08-17T10:19:38.281Z,1008.17
2022-08-17T10:20:38.311Z,1008.18
2022-08-17T10:21:38.328Z,1008.18
2022-08-17T10:22:38.382Z,1008.23
2022-08-17T10:23:38.383Z,1008.28
2022-08-17T10:24:38.404Z,1008.24
2022-08-17T10:25:54.027Z,1008.24
2022-08-17T10:26:46.222Z,1008.19
2022-08-17T10:27:38.477Z,1008.19
2022-08-17T10:28:38.505Z,1008.22
2022-08-17T10:29:49.733Z,1008.27
2022-08-17T10:30:38.551Z,1008.29
2022-08-17T10:31:38.578Z,1008.31
2022-08-17T10:32:38.599Z,1008.36
2022-08-17T10:33:38.616Z,1008.31
2022-08-17T10:34:41.393Z,1008.33
2022-08-17T10:35:38.662Z,1008.30
2022-08-17T10:36:38.790Z,1009.08
2022-08-17T10:37:38.706Z,1008.37
2022-08-17T10:38:38.730Z,1008.37
2022-08-17T10:39:52.408Z,1008.37
2022-08-17T10:40:38.772Z,1008.91
2022-08-17T10:41:40.519Z,1008.46
2022-08-17T10:42:38.810Z,1008.78
2022-08-17T10:43:38.829Z,1008.38
2022-08-17T10:44:41.287Z,1008.36
2022-08-17T10:45:38.872Z,1008.72
2022-08-17T10:46:38.898Z,1008.31
2022-08-17T10:47:54.988Z,1008.31
2022-08-17T10:48:38.938Z,1008.25
2022-08-17T10:49:38.958Z,1008.24
2022-08-17T10:50:38.976Z,1008.22
2022-08-17T10:51:38.994Z,1008.20
2022-08-17T10:52:39.017Z,1008.20
2022-08-17T10:53:39.040Z,1008.54
2022-08-17T10:54:39.064Z,1008.64
2022-08-17T10:55:39.083Z,1008.84
2022-08-17T10:56:39.098Z,1008.38
2022-08-17T10:57:39.121Z,1008.65
2022-08-17T10:58:39.135Z,1008.30
2022-08-17T10:59:39.153Z,1008.24
2022-08-17T11:00:39.236Z,1008.22
2022-08-17T11:01:39.192Z,1008.25
2022-08-17T11:02:39.216Z,1008.25
2022-08-17T11:03:39.233Z,1008.21
2022-08-17T11:04:39.254Z,1008.26
2022-08-17T11:05:43.500Z,1008.22
2022-08-17T11:06:39.293Z,1008.24
2022-08-17T11:07:39.308Z,1008.23
2022-08-17T11:08:39.331Z,1008.27
2022-08-17T11:09:39.351Z,1008.26
2022-08-17T11:10:39.364Z,1008.30
2022-08-17T11:11:39.377Z,1008.28
2022-08-17T11:12:39.401Z,1008.27
2022-08-17T11:13:39.419Z,1008.26
2022-08-17T11:14:39.437Z,1008.22
2022-08-17T11:15:39.448Z,1008.19
2022-08-17T11:16:39.470Z,1008.18
2022-08-17T11:17:39.488Z,1008.15
2022-08-17T11:18:39.506Z,1008.13
2022-08-17T11:19:39.521Z,1008.08
2022-08-17T11:20:39.542Z,1008.13
2022-08-17T11:21:39.560Z,1009.23
2022-08-17T11:22:39.578Z,1008.85
2022-08-17T11:23:39.594Z,1009.15
2022-08-17T11:24:39.608Z,1009.09
2022-08-17T11:25:39.627Z,1008.74
2022-08-17T11:26:39.644Z,1008.96
2022-08-17T11:27:39.673Z,1008.84
2022-08-17T11:28:39.681Z,1009.12
2022-08-17T11:29:39.705Z,1009.06
2022-08-17T11:30:39.721Z,1009.06
2022-08-17T11:31:40.019Z,1009.10
2022-08-17T11:32:47.560Z,1009.05
2022-08-17T11:33:39.778Z,1008.96
2022-08-17T11:34:39.797Z,1008.97
2022-08-17T11:35:39.815Z,1008.95
2022-08-17T11:36:39.836Z,1008.69
2022-08-17T11:37:39.863Z,1008.07
2022-08-17T11:38:39.877Z,1008.68
2022-08-17T11:39:39.955Z,1008.94
2022-08-17T11:40:39.923Z,1008.56
2022-08-17T11:41:39.943Z,1008.13
2022-08-17T11:42:39.962Z,1008.35
2022-08-17T11:43:42.815Z,1008.25
2022-08-17T11:44:40.010Z,1008.30
2022-08-17T11:45:40.028Z,1007.98
2022-08-17T11:46:40.050Z,1007.90
2022-08-17T11:47:40.076Z,1007.95
2022-08-17T11:48:40.100Z,1008.51
2022-08-17T11:49:40.121Z,1008.47
2022-08-17T11:50:40.145Z,1008.08
2022-08-17T11:51:40.166Z,1008.33
2022-08-17T11:52:40.188Z,1007.86
2022-08-17T11:53:40.207Z,1007.85
2022-08-17T11:54:40.231Z,1007.91
2022-08-17T11:55:44.757Z,1007.95
2022-08-17T11:56:40.278Z,1007.93
2022-08-17T11:57:40.299Z,1007.92
2022-08-17T11:58:40.324Z,1007.92
2022-08-17T11:59:40.344Z,1007.92
2022-08-17T12:00:40.366Z,1007.91
2022-08-17T12:01:40.387Z,1008.04
2022-08-17T12:02:44.382Z,1007.99
2022-08-17T12:03:40.430Z,1007.95
2022-08-17T12:04:40.517Z,1007.92
2022-08-17T12:05:40.474Z,1007.91